Time;durP1;ratioP1;P1;durP2;ratioP2;P2;SDS_P1;SDS_P2;PMS_P1;PMS_P2;Temp;Humidity;BMP_temperature;BMP_pressure;BME280_temperature;BME280_humidity;BME280_pressure;Samples;Min_cycle;Max_cycle;Signal;HPM_P1;HPM_P2
2021/11/15 00:01:43;;;;;;;124.30;58.53;;;;;;;4.62;100.00;101293.16;5012645;28;20022;-70
2021/11/15 00:04:08;;;;;;;127.90;59.40;;;;;;;4.62;100.00;101287.84;5013088;28;20030;-71
2021/11/15 00:06:34;;;;;;;130.93;59.58;;;;;;;4.71;100.00;101294.56;5012506;28;20479;-71
2021/11/15 00:08:59;;;;;;;127.25;58.78;;;;;;;4.74;100.00;101292.59;5011673;28;20657;-70
2021/11/15 00:11:26;;;;;;;123.97;58.83;;;;;;;4.80;100.00;101293.25;5012721;28;20026;-71
2021/11/15 00:13:52;;;;;;;117.07;57.50;;;;;;;4.84;100.00;101286.84;5012988;28;20474;-71
2021/11/15 00:16:17;;;;;;;113.43;55.60;;;;;;;4.89;100.00;101301.63;5012201;28;20029;-71
2021/11/15 00:18:43;;;;;;;125.82;56.97;;;;;;;4.91;100.00;101302.41;5011811;28;20022;-71
2021/11/15 00:21:08;;;;;;;124.38;57.17;;;;;;;4.97;100.00;101303.91;5011949;28;20029;-71
2021/11/15 00:23:34;;;;;;;117.03;56.60;;;;;;;5.00;100.00;101303.75;5011439;28;20042;-71
2021/11/15 00:25:59;;;;;;;118.50;55.28;;;;;;;5.01;100.00;101303.69;5011613;28;20045;-71
2021/11/15 00:28:24;;;;;;;131.32;61.67;;;;;;;5.07;100.00;101303.38;5011738;28;20148;-71
2021/11/15 00:30:50;;;;;;;125.10;59.72;;;;;;;5.02;100.00;101299.19;5011629;28;20022;-71
2021/11/15 00:33:16;;;;;;;126.97;61.35;;;;;;;5.10;100.00;101303.22;5011580;28;20057;-67
2021/11/15 00:35:41;;;;;;;127.82;61.63;;;;;;;5.10;100.00;101302.34;5017393;28;20463;-67
2021/11/15 00:38:06;;;;;;;126.40;59.70;;;;;;;5.08;100.00;101297.13;5001964;28;20057;-67
2021/11/15 00:40:32;;;;;;;131.20;60.05;;;;;;;5.17;100.00;101314.41;5021127;28;20060;-68
2021/11/15 00:42:58;;;;;;;119.05;58.53;;;;;;;5.17;100.00;101299.31;5013552;28;20030;-68
2021/11/15 00:45:23;;;;;;;125.25;58.42;;;;;;;5.14;100.00;101291.50;5011003;28;20045;-68
2021/11/15 00:47:49;;;;;;;120.78;58.35;;;;;;;5.24;100.00;101299.84;5011247;28;20101;-67
2021/11/15 00:50:18;;;;;;;128.70;60.65;;;;;;;5.25;100.00;101302.44;5011181;28;20560;-68
2021/11/15 00:52:45;;;;;;;119.07;58.97;;;;;;;5.28;100.00;101306.75;4993102;28;20120;-67
2021/11/15 00:55:10;;;;;;;121.80;59.65;;;;;;;5.27;100.00;101307.69;5011182;28;20022;-67
2021/11/15 00:57:36;;;;;;;125.75;62.60;;;;;;;5.27;100.00;101307.69;5010866;28;20092;-68
2021/11/15 01:00:05;;;;;;;121.88;58.83;;;;;;;5.18;100.00;101290.41;5011071;28;20018;-68
2021/11/15 01:02:30;;;;;;;128.05;58.15;;;;;;;5.32;100.00;101313.66;5010795;28;20029;-67
2021/11/15 01:04:56;;;;;;;123.20;58.25;;;;;;;5.25;100.00;101298.94;5011206;28;20026;-67
2021/11/15 01:07:21;;;;;;;119.00;56.17;;;;;;;5.31;100.00;101312.78;5010601;28;20056;-67
2021/11/15 01:09:47;;;;;;;123.88;57.35;;;;;;;5.37;100.00;101319.56;5010771;28;20038;-67
2021/11/15 01:12:12;;;;;;;122.40;57.55;;;;;;;5.31;100.00;101299.47;5010660;28;20029;-67
2021/11/15 01:14:38;;;;;;;114.18;55.17;;;;;;;5.34;100.00;101307.31;5010447;28;20065;-67
2021/11/15 01:17:06;;;;;;;121.63;58.17;;;;;;;5.38;100.00;101305.38;5010740;28;20022;-67
2021/11/15 01:19:32;;;;;;;120.13;56.38;;;;;;;5.42;100.00;101310.41;5010404;28;20028;-67
2021/11/15 01:21:58;;;;;;;123.10;58.22;;;;;;;5.41;100.00;101303.38;5011207;28;20029;-68
2021/11/15 01:24:24;;;;;;;125.40;58.50;;;;;;;5.40;100.00;101293.69;5010950;28;20052;-67
2021/11/15 01:26:49;;;;;;;128.60;58.53;;;;;;;5.51;100.00;101304.63;5011059;28;20025;-68
2021/11/15 01:29:15;;;;;;;119.20;58.90;;;;;;;5.52;100.00;101300.19;5011329;28;20026;-68
2021/11/15 01:31:41;;;;;;;120.07;58.40;;;;;;;5.53;100.00;101292.13;5010944;28;20014;-68
2021/11/15 01:34:07;;;;;;;116.65;58.75;;;;;;;5.56;100.00;101283.13;5009649;28;20049;-68
2021/11/15 01:36:33;;;;;;;111.00;56.03;;;;;;;5.61;100.00;101294.41;4993068;28;20104;-67
2021/11/15 01:38:59;;;;;;;121.80;58.50;;;;;;;5.58;100.00;101287.41;5011269;28;20390;-68
2021/11/15 01:41:25;;;;;;;112.97;58.05;;;;;;;5.61;100.00;101287.25;5010928;28;20046;-68
2021/11/15 01:43:51;;;;;;;114.55;57.20;;;;;;;5.59;100.00;101282.97;5011070;28;20423;-68
2021/11/15 01:46:16;;;;;;;120.90;55.60;;;;;;;5.64;100.00;101278.28;5010968;28;20064;-67
2021/11/15 01:48:42;;;;;;;119.75;57.60;;;;;;;5.65;100.00;101286.19;5010711;28;20116;-67
2021/11/15 01:51:08;;;;;;;115.63;56.67;;;;;;;5.68;100.00;101285.16;5010624;28;20041;-68
2021/11/15 01:53:33;;;;;;;110.68;54.92;;;;;;;5.68;100.00;101275.34;5010707;28;20026;-67
2021/11/15 01:55:59;;;;;;;124.43;58.70;;;;;;;5.59;100.00;101262.53;5011167;28;20044;-68
2021/11/15 01:58:25;;;;;;;123.15;60.13;;;;;;;5.67;100.00;101281.63;5010665;28;20029;-67
2021/11/15 02:00:55;;;;;;;121.22;57.90;;;;;;;5.73;100.00;101275.09;5010695;28;20037;-67
2021/11/15 02:03:22;;;;;;;129.85;63.10;;;;;;;5.75;100.00;101284.75;5010684;28;20029;-68
2021/11/15 02:05:48;;;;;;;136.32;65.13;;;;;;;5.76;100.00;101278.47;5010520;28;20406;-66
2021/11/15 02:08:15;;;;;;;141.63;66.05;;;;;;;5.76;100.00;101278.47;5010827;28;20049;-67
2021/11/15 02:10:41;;;;;;;136.95;64.95;;;;;;;5.78;100.00;101273.94;5010621;28;20145;-67
2021/11/15 02:13:06;;;;;;;139.00;66.88;;;;;;;5.81;100.00;101279.09;5010457;28;20109;-67
2021/11/15 02:15:32;;;;;;;130.32;61.75;;;;;;;5.79;100.00;101270.34;5010653;28;20117;-68
2021/11/15 02:17:58;;;;;;;130.70;60.30;;;;;;;5.84;100.00;101276.28;5010624;28;20033;-68
2021/11/15 02:20:23;;;;;;;127.43;63.13;;;;;;;5.87;100.00;101291.25;5010306;28;20478;-67
2021/11/15 02:22:50;;;;;;;119.78;58.15;;;;;;;5.88;100.00;101279.66;5010533;28;20038;-68
2021/11/15 02:25:18;;;;;;;117.78;57.33;;;;;;;5.88;100.00;101283.19;5010538;28;20514;-67
2021/11/15 02:27:44;;;;;;;114.65;56.70;;;;;;;5.91;100.00;101284.81;5010368;28;20471;-67
2021/11/15 02:30:21;;;;;;;116.15;57.78;;;;;;;5.93;100.00;101294.44;5010633;28;20414;-68
2021/11/15 02:32:47;;;;;;;120.07;58.20;;;;;;;5.86;100.00;101271.75;5011043;28;20026;-68
2021/11/15 02:35:13;;;;;;;117.78;56.33;;;;;;;5.92;100.00;101271.44;5014437;28;20348;-68
2021/11/15 02:37:40;;;;;;;105.20;54.72;;;;;;;5.97;100.00;101281.84;5014052;28;20030;-67
2021/11/15 02:40:08;;;;;;;105.65;53.08;;;;;;;5.99;100.00;101286.13;4996588;28;20120;-68
2021/11/15 02:42:34;;;;;;;103.72;51.30;;;;;;;5.94;100.00;101274.00;5014147;28;20037;-68
2021/11/15 02:45:00;;;;;;;102.00;51.17;;;;;;;5.97;100.00;101273.84;5014323;28;20513;-68
2021/11/15 02:47:25;;;;;;;102.45;52.60;;;;;;;5.96;100.00;101274.78;5013698;28;20256;-67
2021/11/15 02:49:51;;;;;;;101.13;49.15;;;;;;;6.02;100.00;101288.63;5014127;28;20113;-67
2021/11/15 02:52:19;;;;;;;102.05;51.88;;;;;;;6.00;100.00;101274.53;5014012;28;20532;-67
2021/11/15 02:54:46;;;;;;;104.55;53.35;;;;;;;6.00;100.00;101271.03;5013835;28;20030;-67
2021/11/15 02:57:16;;;;;;;107.20;54.65;;;;;;;5.95;100.00;101267.75;5013968;28;20462;-68
2021/11/15 02:59:42;;;;;;;101.35;50.33;;;;;;;6.02;100.00;101285.09;5013663;28;20674;-67
2021/11/15 03:02:08;;;;;;;97.38;50.65;;;;;;;5.94;100.00;101274.84;5013705;28;20040;-67
2021/11/15 03:04:33;;;;;;;101.22;51.80;;;;;;;5.99;100.00;101294.13;5013748;28;20383;-67
2021/11/15 03:06:59;;;;;;;97.25;51.50;;;;;;;5.99;100.00;101290.59;5013714;28;20053;-67
2021/11/15 03:09:24;;;;;;;98.25;50.38;;;;;;;5.99;100.00;101290.59;5013517;28;20024;-67
2021/11/15 03:11:50;;;;;;;93.32;48.92;;;;;;;5.97;100.00;101297.81;5013435;28;20024;-67
2021/11/15 03:14:15;;;;;;;93.55;49.28;;;;;;;5.97;100.00;101289.81;5013641;28;20030;-67
2021/11/15 03:16:41;;;;;;;96.85;50.08;;;;;;;5.99;100.00;101293.25;5013217;28;20052;-67
2021/11/15 03:19:07;;;;;;;99.25;50.83;;;;;;;5.92;100.00;101284.75;5012281;28;20033;-67
2021/11/15 03:21:32;;;;;;;98.60;51.10;;;;;;;5.88;100.00;101280.53;5013507;28;20034;-67
2021/11/15 03:23:58;;;;;;;100.35;50.90;;;;;;;5.95;100.00;101294.34;5013516;28;20079;-68
2021/11/15 03:26:26;;;;;;;95.38;49.33;;;;;;;5.91;100.00;101285.69;5013108;28;20120;-68
2021/11/15 03:28:53;;;;;;;96.60;49.33;;;;;;;5.92;100.00;101297.19;5013465;28;20038;-68
2021/11/15 03:31:23;;;;;;;99.47;50.03;;;;;;;5.90;100.00;101296.44;5013068;28;20056;-67
2021/11/15 03:33:51;;;;;;;93.97;51.22;;;;;;;5.88;100.00;101293.84;5012945;28;20049;-67
2021/11/15 03:36:17;;;;;;;91.82;49.95;;;;;;;5.82;100.00;101294.16;5013385;28;20458;-67
2021/11/15 03:38:43;;;;;;;99.63;49.63;;;;;;;5.82;100.00;101294.16;5013143;28;20056;-67
2021/11/15 03:41:09;;;;;;;91.10;49.45;;;;;;;5.80;100.00;101296.00;5013212;28;20030;-67
2021/11/15 03:43:35;;;;;;;95.50;49.50;;;;;;;5.77;100.00;101293.50;5012751;28;20026;-67
2021/11/15 03:46:02;;;;;;;100.32;49.13;;;;;;;5.80;100.00;101309.31;5012935;28;20045;-68
2021/11/15 03:48:27;;;;;;;93.10;47.45;;;;;;;5.77;100.00;101301.47;5012976;28;20030;-67
2021/11/15 03:50:57;;;;;;;87.55;48.28;;;;;;;5.75;100.00;101290.06;5012903;28;20101;-67
2021/11/15 03:53:27;;;;;;;100.93;48.47;;;;;;;5.74;100.00;101296.31;5012785;28;20548;-67
2021/11/15 03:55:53;;;;;;;91.30;48.55;;;;;;;5.69;100.00;101289.53;5012964;28;20030;-67
2021/11/15 03:58:18;;;;;;;90.50;47.90;;;;;;;5.52;100.00;101258.50;5012498;28;20029;-67
2021/11/15 04:00:44;;;;;;;90.63;46.05;;;;;;;5.65;100.00;101290.63;5012663;28;20042;-67
2021/11/15 04:03:27;;;;;;;92.50;46.78;;;;;;;5.63;100.00;101290.72;5012767;28;20065;-67
2021/11/15 04:05:57;;;;;;;85.95;44.40;;;;;;;5.61;100.00;101292.56;5012700;28;20026;-68
2021/11/15 04:08:23;;;;;;;83.50;44.53;;;;;;;5.62;100.00;101299.63;5011435;28;20061;-68
2021/11/15 04:10:50;;;;;;;87.45;45.45;;;;;;;5.60;100.00;101297.97;5012501;28;20041;-68
2021/11/15 04:13:23;;;;;;;85.85;46.30;;;;;;;5.51;100.00;101282.50;4994794;28;20041;-67
2021/11/15 04:15:52;;;;;;;83.20;43.95;;;;;;;5.49;100.00;101293.22;5012540;28;20022;-67
2021/11/15 04:18:20;;;;;;;90.50;45.17;;;;;;;5.48;100.00;101294.16;4994965;28;20033;-68
2021/11/15 04:20:46;;;;;;;85.05;44.03;;;;;;;5.45;100.00;101291.66;4994509;28;20033;-67
2021/11/15 04:23:12;;;;;;;93.55;47.63;;;;;;;5.44;100.00;101291.72;5012166;28;20036;-66
2021/11/15 04:25:38;;;;;;;82.50;43.88;;;;;;;5.37;100.00;101285.88;5010742;28;20083;-67
2021/11/15 04:28:04;;;;;;;94.10;46.63;;;;;;;5.41;100.00;101297.19;5012349;28;20152;-68
2021/11/15 04:30:31;;;;;;;93.30;44.55;;;;;;;5.35;100.00;101297.53;4994515;28;20546;-67
2021/11/15 04:33:01;;;;;;;95.22;46.95;;;;;;;5.39;100.00;101310.59;5011934;28;20100;-67
2021/11/15 04:35:27;;;;;;;89.80;46.60;;;;;;;5.38;100.00;101308.84;5010678;28;20038;-67
2021/11/15 04:37:52;;;;;;;86.95;46.92;;;;;;;5.37;100.00;101300.97;5011701;28;20111;-66
2021/11/15 04:40:18;;;;;;;81.63;44.42;;;;;;;5.30;100.00;101289.78;5012073;28;20623;-67
2021/11/15 04:42:44;;;;;;;86.70;45.25;;;;;;;5.34;100.00;101301.97;5011762;28;20029;-68
2021/11/15 04:45:10;;;;;;;93.18;44.75;;;;;;;5.27;100.00;101295.25;5010734;28;20026;-68
2021/11/15 04:47:36;;;;;;;89.18;43.53;;;;;;;5.23;100.00;101299.00;5011974;28;20037;-67
2021/11/15 04:50:03;;;;;;;88.38;44.45;;;;;;;5.27;100.00;101305.91;5011977;28;20121;-67
2021/11/15 04:52:29;;;;;;;85.20;43.75;;;;;;;5.23;100.00;101309.66;5011513;28;20030;-67
2021/11/15 04:54:55;;;;;;;85.90;45.13;;;;;;;5.20;100.00;101315.13;5011384;28;20025;-67
2021/11/15 04:57:20;;;;;;;94.78;47.42;;;;;;;5.17;100.00;101311.75;5011623;28;20045;-67
2021/11/15 04:59:47;;;;;;;82.63;43.28;;;;;;;5.12;100.00;101311.97;5011590;28;20030;-67
2021/11/15 05:02:12;;;;;;;88.82;45.15;;;;;;;5.12;100.00;101321.75;5011549;28;20037;-67
2021/11/15 05:04:38;;;;;;;85.15;43.05;;;;;;;5.05;100.00;101315.88;5011578;28;20545;-67
2021/11/15 05:07:04;;;;;;;93.55;45.55;;;;;;;5.06;100.00;101327.38;5011271;28;20054;-66
2021/11/15 05:09:29;;;;;;;91.13;46.50;;;;;;;5.01;100.00;101324.94;5010790;28;20518;-66
2021/11/15 05:11:55;;;;;;;89.20;43.95;;;;;;;5.03;100.00;101324.88;5010875;28;20021;-68
2021/11/15 05:14:20;;;;;;;87.93;44.42;;;;;;;4.93;100.00;101318.28;5010797;28;20028;-68
2021/11/15 05:16:47;;;;;;;88.90;45.08;;;;;;;4.89;100.00;101312.25;5010796;28;20034;-67
2021/11/15 05:19:13;;;;;;;96.55;43.47;;;;;;;4.89;100.00;101322.00;5010864;28;20026;-67
2021/11/15 05:21:39;;;;;;;85.97;44.97;;;;;;;4.86;100.00;101317.72;5010400;28;20517;-68
2021/11/15 05:24:04;;;;;;;86.00;42.42;;;;;;;4.78;100.00;101308.38;5010608;28;20033;-67
2021/11/15 05:26:30;;;;;;;82.95;41.30;;;;;;;4.80;100.00;101325.13;4992879;28;20046;-67
2021/11/15 05:28:56;;;;;;;84.60;42.92;;;;;;;4.76;100.00;101324.41;5010748;28;20028;-67
2021/11/15 05:31:21;;;;;;;93.00;44.78;;;;;;;4.77;100.00;101331.44;5010512;28;20098;-67
2021/11/15 05:33:47;;;;;;;90.38;43.65;;;;;;;4.71;100.00;101335.25;4987879;28;20054;-67
2021/11/15 05:36:12;;;;;;;87.53;43.35;;;;;;;4.74;100.00;101340.41;5008136;28;20095;-67
2021/11/15 05:38:38;;;;;;;90.60;45.63;;;;;;;4.75;100.00;101341.28;5007889;28;20068;-67
2021/11/15 05:41:04;;;;;;;83.57;44.13;;;;;;;4.77;100.00;101339.41;5009451;28;20421;-67
2021/11/15 05:43:29;;;;;;;86.43;43.65;;;;;;;4.76;100.00;101340.34;5009052;28;20034;-67
2021/11/15 05:45:55;;;;;;;90.22;44.45;;;;;;;4.78;100.00;101337.63;5008999;28;20096;-67
2021/11/15 05:48:20;;;;;;;94.28;45.25;;;;;;;4.76;100.00;101332.38;5008441;28;20172;-67
2021/11/15 05:50:47;;;;;;;84.93;43.08;;;;;;;4.77;100.00;101334.09;5010286;28;20018;-68
2021/11/15 05:53:15;;;;;;;92.60;43.90;;;;;;;4.82;100.00;101341.84;5010653;28;20108;-67
2021/11/15 05:55:41;;;;;;;86.00;44.72;;;;;;;4.84;100.00;101345.31;5008925;28;20018;-67
2021/11/15 05:58:07;;;;;;;92.25;46.20;;;;;;;4.88;100.00;101358.38;5007396;28;20058;-67
2021/11/15 06:00:32;;;;;;;95.93;46.17;;;;;;;4.85;100.00;101355.84;5007209;28;20079;-68
2021/11/15 06:02:58;;;;;;;92.20;46.47;;;;;;;4.87;100.00;101361.94;5009684;28;20034;-67
2021/11/15 06:05:25;;;;;;;96.20;47.50;;;;;;;4.92;100.00;101372.34;5009659;28;20104;-68
2021/11/15 06:07:51;;;;;;;94.90;44.35;;;;;;;4.89;100.00;101368.06;5012531;28;20038;-68
2021/11/15 06:10:16;;;;;;;94.20;43.97;;;;;;;4.94;100.00;101387.31;5012827;28;20038;-67
2021/11/15 06:12:43;;;;;;;93.78;44.45;;;;;;;4.96;100.00;101388.09;5013089;28;20203;-68
2021/11/15 06:15:10;;;;;;;92.90;46.53;;;;;;;4.94;100.00;101387.31;5014719;28;20477;-67
2021/11/15 06:17:36;;;;;;;91.43;45.65;;;;;;;4.97;100.00;101386.31;5013152;28;20470;-67
2021/11/15 06:20:06;;;;;;;101.25;47.08;;;;;;;4.98;100.00;101396.88;5014554;28;20017;-68
2021/11/15 06:22:32;;;;;;;94.85;44.70;;;;;;;5.03;100.00;101402.81;5012861;28;20029;-68
2021/11/15 06:24:58;;;;;;;91.43;46.47;;;;;;;4.99;100.00;101398.56;5013832;28;20394;-70
2021/11/15 06:27:23;;;;;;;98.55;46.83;;;;;;;5.05;100.00;101400.94;5012456;28;20025;-71
2021/11/15 06:29:49;;;;;;;90.25;46.03;;;;;;;5.11;100.00;101413.94;5013880;28;20044;-71
2021/11/15 06:32:14;;;;;;;99.65;48.55;;;;;;;5.11;100.00;101411.28;4996215;28;20022;-71
2021/11/15 06:34:40;;;;;;;91.15;47.22;;;;;;;5.13;100.00;101420.06;4988960;28;20051;-71
2021/11/15 06:37:07;;;;;;;90.65;46.75;;;;;;;5.15;100.00;101418.19;4974633;28;20105;-72
2021/11/15 06:39:33;;;;;;;94.75;46.38;;;;;;;5.12;100.00;101413.00;4974379;28;20035;-72
2021/11/15 06:41:59;;;;;;;95.78;46.42;;;;;;;5.12;100.00;101417.50;4974522;28;20049;-71
2021/11/15 06:44:27;;;;;;;87.60;44.78;;;;;;;5.10;100.00;101406.91;4974261;28;20102;-72
2021/11/15 06:46:53;;;;;;;97.30;48.22;;;;;;;5.17;100.00;101426.97;4989298;28;20700;-72
2021/11/15 06:49:18;;;;;;;101.05;50.92;;;;;;;5.22;100.00;101432.91;4974361;28;20042;-72
2021/11/15 06:51:45;;;;;;;97.13;49.42;;;;;;;5.23;100.00;101436.44;4974952;28;20027;-71
2021/11/15 06:54:11;;;;;;;110.95;55.03;;;;;;;5.23;100.00;101437.31;4975178;28;20078;-71
2021/11/15 06:56:37;;;;;;;111.95;55.22;;;;;;;5.27;100.00;101444.19;4990040;28;20027;-71
2021/11/15 06:59:03;;;;;;;106.22;56.10;;;;;;;5.26;100.00;101441.59;4975167;28;20115;-70
2021/11/15 07:01:29;;;;;;;116.03;56.72;;;;;;;5.20;100.00;101431.25;4989724;28;20030;-72
2021/11/15 07:03:55;;;;;;;115.45;59.22;;;;;;;5.36;100.00;101453.53;4975003;28;20035;-71
2021/11/15 07:06:20;;;;;;;116.22;60.17;;;;;;;5.34;100.00;101445.63;4989603;28;20081;-71
2021/11/15 07:08:49;;;;;;;116.38;59.88;;;;;;;5.42;100.00;101458.56;4974515;28;20038;-71
2021/11/15 07:11:14;;;;;;;115.88;59.35;;;;;;;5.50;100.00;101461.69;4974614;28;20030;-71
2021/11/15 07:13:40;;;;;;;118.18;59.35;;;;;;;5.44;100.00;101454.88;4974313;28;20042;-71
2021/11/15 07:16:06;;;;;;;113.47;60.20;;;;;;;5.47;100.00;101457.38;4973753;28;20022;-72
2021/11/15 07:18:32;;;;;;;122.85;62.15;;;;;;;5.48;100.00;101456.44;4972810;28;20049;-70
2021/11/15 07:21:00;;;;;;;117.45;60.40;;;;;;;5.65;100.00;101474.25;4988730;28;20027;-71
2021/11/15 07:23:26;;;;;;;117.45;60.92;;;;;;;5.69;100.00;101479.34;4973576;28;20552;-71
2021/11/15 07:25:54;;;;;;;118.68;60.65;;;;;;;5.74;100.00;101476.47;4973650;28;20471;-73
2021/11/15 07:28:20;;;;;;;118.05;58.60;;;;;;;5.71;100.00;101466.81;4973655;28;20113;-73
2021/11/15 07:30:46;;;;;;;110.72;57.90;;;;;;;5.78;100.00;101473.59;4989333;28;20683;-71
2021/11/15 07:33:13;;;;;;;111.53;54.47;;;;;;;5.78;100.00;101460.28;4985955;28;20042;-72
2021/11/15 07:35:38;;;;;;;100.78;52.35;;;;;;;5.90;100.00;101472.13;4995508;28;20629;-68
2021/11/15 07:38:04;;;;;;;104.10;51.22;;;;;;;5.89;100.00;101460.59;5013572;28;20084;-68
2021/11/15 07:40:29;;;;;;;98.38;51.72;;;;;;;6.01;100.00;101465.31;5013084;28;20041;-67
2021/11/15 07:42:55;;;;;;;101.13;51.53;;;;;;;6.06;100.00;101457.94;5012989;28;20121;-67
2021/11/15 07:45:21;;;;;;;107.45;53.25;;;;;;;6.15;100.00;101465.47;5010890;28;20029;-72
2021/11/15 07:47:46;;;;;;;93.43;49.72;;;;;;;6.17;100.00;101452.06;5011968;28;20040;-72
2021/11/15 07:50:14;;;;;;;99.47;50.22;;;;;;;6.26;100.00;101452.44;5011886;28;20041;-72
2021/11/15 07:52:39;;;;;;;108.57;52.17;;;;;;;6.35;100.00;101461.75;5012082;28;20093;-71
2021/11/15 07:55:08;;;;;;;104.13;50.65;;;;;;;6.40;100.00;101457.94;4994680;28;20033;-71
2021/11/15 07:57:34;;;;;;;97.38;51.88;;;;;;;6.54;100.00;101468.72;5012012;28;20028;-72
2021/11/15 07:59:59;;;;;;;106.68;51.88;;;;;;;6.60;100.00;101465.72;5010794;28;20021;-72
2021/11/15 08:02:25;;;;;;;93.07;49.45;;;;;;;6.67;100.00;101463.59;4994500;28;20132;-72
2021/11/15 08:04:50;;;;;;;95.85;49.67;;;;;;;6.76;100.00;101471.97;4994496;28;20045;-72
2021/11/15 08:07:16;;;;;;;104.57;50.78;;;;;;;6.88;100.00;101481.97;5012003;28;20430;-71
2021/11/15 08:09:42;;;;;;;103.95;50.47;;;;;;;6.88;100.00;101470.44;5011677;28;20030;-71
2021/11/15 08:12:09;;;;;;;92.32;48.33;;;;;;;7.00;100.00;101469.78;4994561;28;20116;-72
2021/11/15 08:14:39;;;;;;;92.88;48.15;;;;;;;7.07;100.00;101477.34;5012282;28;20463;-72
2021/11/15 08:17:05;;;;;;;91.80;47.33;;;;;;;7.14;100.00;101485.88;5001212;28;20022;-71
2021/11/15 08:19:31;;;;;;;92.80;46.97;;;;;;;7.21;100.00;101468.59;5012201;28;20033;-71
2021/11/15 08:21:58;;;;;;;88.68;46.40;;;;;;;7.29;100.00;101477.03;5011006;28;20033;-71
2021/11/15 08:24:48;;;;;;;91.20;47.83;;;;;;;7.39;100.00;101472.03;5012661;28;20033;-71
2021/11/15 08:27:14;;;;;;;84.47;45.72;;;;;;;7.43;100.00;101479.78;5012566;28;20105;-71
2021/11/15 08:29:43;;;;;;;88.75;46.10;;;;;;;7.49;100.00;101474.09;5011453;28;20129;-72
2021/11/15 08:32:09;;;;;;;88.65;47.38;;;;;;;7.57;100.00;101477.19;4994675;28;20120;-71
2021/11/15 08:34:36;;;;;;;89.65;45.58;;;;;;;7.61;100.00;101468.03;5007502;28;20120;-72
2021/11/15 08:37:05;;;;;;;88.72;46.55;;;;;;;7.72;100.00;101480.78;4992992;28;20030;-71
2021/11/15 08:39:30;;;;;;;86.90;44.50;;;;;;;7.79;100.00;101479.47;4991167;28;20069;-71
2021/11/15 08:42:00;;;;;;;84.88;45.08;;;;;;;7.85;100.00;101479.13;4992965;28;20034;-72
2021/11/15 08:44:27;;;;;;;84.97;43.42;;;;;;;7.90;99.87;101483.25;4992456;28;20066;-71
2021/11/15 08:46:53;;;;;;;87.72;45.22;;;;;;;7.96;98.94;101490.06;4991013;28;20030;-71
2021/11/15 08:49:22;;;;;;;82.25;44.70;;;;;;;8.00;98.38;101486.25;4992701;28;20362;-71
2021/11/15 08:51:48;;;;;;;88.50;45.03;;;;;;;8.12;97.11;101488.19;4992377;28;20423;-71
2021/11/15 08:54:16;;;;;;;82.93;43.97;;;;;;;8.17;96.88;101492.31;4992484;28;20022;-71
2021/11/15 08:56:44;;;;;;;83.55;44.83;;;;;;;8.20;97.38;101494.81;4990859;28;20057;-72
2021/11/15 08:59:10;;;;;;;88.97;44.70;;;;;;;8.19;96.53;101490.41;4991133;28;20360;-71
2021/11/15 09:01:36;;;;;;;84.75;45.53;;;;;;;8.28;96.62;101497.03;4991765;28;20145;-71
2021/11/15 09:04:02;;;;;;;86.20;44.58;;;;;;;8.30;96.62;101492.47;4992435;28;20030;-71
2021/11/15 09:06:34;;;;;;;79.13;43.22;;;;;;;8.31;96.28;101478.16;4990575;28;20483;-71
2021/11/15 09:08:59;;;;;;;80.45;43.17;;;;;;;8.40;95.78;101480.28;4992634;28;20041;-71
2021/11/15 09:11:25;;;;;;;85.43;43.78;;;;;;;8.44;95.96;101473.78;4992104;28;20524;-71
2021/11/15 09:13:51;;;;;;;82.97;44.10;;;;;;;8.51;94.64;101480.47;4985189;28;20060;-71
2021/11/15 09:16:16;;;;;;;80.20;42.50;;;;;;;8.55;94.53;101487.38;4991781;28;20481;-71
2021/11/15 09:18:43;;;;;;;83.05;43.53;;;;;;;8.58;94.19;101479.19;4992034;28;20084;-71
2021/11/15 09:21:10;;;;;;;81.63;43.28;;;;;;;8.64;94.11;101478.81;4990586;28;20038;-71
2021/11/15 09:23:39;;;;;;;79.00;44.45;;;;;;;8.66;93.11;101468.84;4992039;28;20061;-71
2021/11/15 09:26:06;;;;;;;84.03;43.28;;;;;;;8.74;93.37;101480.78;4991989;28;20062;-71
2021/11/15 09:28:32;;;;;;;79.05;43.33;;;;;;;8.76;93.26;101478.91;4991800;28;20116;-71
2021/11/15 09:30:59;;;;;;;79.60;42.58;;;;;;;8.84;92.19;101475.75;4991641;28;20061;-71
2021/11/15 09:33:24;;;;;;;81.90;43.78;;;;;;;8.87;91.22;101481.75;5006666;28;20039;-71
2021/11/15 09:35:52;;;;;;;73.03;41.03;;;;;;;8.91;90.95;101471.72;4991731;28;20054;-71
2021/11/15 09:38:19;;;;;;;75.65;42.40;;;;;;;8.97;90.76;101472.19;4991883;28;20065;-71
2021/11/15 09:40:51;;;;;;;78.47;42.20;;;;;;;9.06;90.26;101474.28;4991513;28;20042;-71
2021/11/15 09:43:17;;;;;;;75.68;42.53;;;;;;;9.04;90.64;101473.56;4991701;28;20030;-71
2021/11/15 09:45:44;;;;;;;75.72;40.42;;;;;;;9.08;90.21;101461.69;4990668;28;20368;-71
2021/11/15 09:48:10;;;;;;;78.53;43.92;;;;;;;9.17;89.98;101460.25;4991519;28;20030;-71
2021/11/15 09:50:37;;;;;;;86.22;43.17;;;;;;;9.25;90.33;101468.63;4991153;28;20049;-71
2021/11/15 09:53:06;;;;;;;70.10;39.38;;;;;;;9.27;90.07;101453.34;4989638;28;20030;-71
2021/11/15 09:55:32;;;;;;;74.63;40.67;;;;;;;9.32;89.41;101457.44;4991385;28;20719;-71
2021/11/15 09:57:59;;;;;;;72.35;40.85;;;;;;;9.38;89.27;101456.16;4991084;28;20030;-71
2021/11/15 10:00:27;;;;;;;72.20;39.78;;;;;;;9.44;88.92;101461.13;4990304;28;20050;-71
2021/11/15 10:02:56;;;;;;;81.40;41.60;;;;;;;9.48;88.10;101457.28;4991486;28;20045;-71
2021/11/15 10:05:22;;;;;;;71.65;39.80;;;;;;;9.51;87.59;101459.75;5006655;28;20033;-71
2021/11/15 10:07:50;;;;;;;74.18;39.97;;;;;;;9.55;86.67;101453.28;4991365;28;20403;-71
2021/11/15 10:10:26;;;;;;;77.65;40.88;;;;;;;9.64;86.85;101463.34;4990384;28;20490;-71
2021/11/15 10:13:18;;;;;;;73.72;41.20;;;;;;;9.68;86.86;101462.22;4991466;28;20030;-71
2021/11/15 10:15:43;;;;;;;73.35;42.92;;;;;;;9.73;86.37;101468.13;4989945;28;20034;-72
2021/11/15 10:18:12;;;;;;;77.80;41.55;;;;;;;9.77;85.37;101452.72;4991349;28;20371;-72
2021/11/15 10:20:50;;;;;;;84.80;41.92;;;;;;;9.84;85.56;101460.25;4989884;28;20853;-71
2021/11/15 10:23:33;;;;;;;74.80;41.47;;;;;;;9.86;85.30;101454.78;4990154;28;20049;-72
2021/11/15 10:26:00;;;;;;;68.15;40.05;;;;;;;9.88;84.86;101452.84;4989972;28;20030;-72
2021/11/15 10:28:29;;;;;;;76.60;43.05;;;;;;;9.96;84.14;101451.34;4990133;28;20022;-72
2021/11/15 10:30:55;;;;;;;75.97;41.25;;;;;;;10.01;83.72;101457.28;4990102;28;20034;-72
2021/11/15 10:33:20;;;;;;;74.10;41.58;;;;;;;10.05;83.54;101458.78;4998237;28;20600;-72
2021/11/15 10:35:51;;;;;;;77.53;40.88;;;;;;;10.09;83.03;101454.97;5010491;28;20040;-72
2021/11/15 10:38:17;;;;;;;78.68;42.45;;;;;;;10.12;82.83;101453.91;5009283;28;20161;-70
2021/11/15 10:40:42;;;;;;;74.65;39.80;;;;;;;10.16;82.62;101452.75;4992973;28;20124;-70
2021/11/15 10:43:09;;;;;;;73.32;41.05;;;;;;;10.18;82.07;101450.78;5010792;28;20034;-73
2021/11/15 10:45:38;;;;;;;75.45;40.85;;;;;;;10.24;82.04;101459.28;5010316;28;20410;-72
2021/11/15 10:48:10;;;;;;;70.65;38.33;;;;;;;10.26;82.12;101454.69;5010737;28;20061;-72
2021/11/15 10:50:55;;;;;;;66.05;39.10;;;;;;;10.23;81.70;101438.81;5010634;28;20029;-72
2021/11/15 10:53:33;;;;;;;70.72;39.83;;;;;;;10.31;81.71;101440.94;5012494;28;20521;-72
2021/11/15 10:56:18;;;;;;;73.47;39.88;;;;;;;10.35;81.85;101443.31;5014547;28;20366;-72
2021/11/15 10:58:50;;;;;;;73.07;40.67;;;;;;;10.41;81.20;101452.75;5014259;28;20029;-72
2021/11/15 11:01:18;;;;;;;66.85;37.72;;;;;;;10.37;81.31;101445.88;5014147;28;20064;-72
2021/11/15 11:03:44;;;;;;;71.88;39.47;;;;;;;10.44;81.64;101441.81;5013187;28;20061;-72
2021/11/15 11:06:15;;;;;;;71.22;39.92;;;;;;;10.45;81.65;101447.06;5011795;28;20570;-72